Time;durP1;ratioP1;P1;durP2;ratioP2;P2;SDS_P1;SDS_P2;PMS_P1;PMS_P2;Temp;Humidity;BMP_temperature;BMP_pressure;BME280_temperature;BME280_humidity;BME280_pressure;Samples;Min_cycle;Max_cycle;Signal;HPM_P1;HPM_P2
2022/03/03 00:02:25;;;;;;;10.10;5.55;;;;;;;16.10;30.20;93458.81;4925146;23;20039;-90
2022/03/03 00:04:50;;;;;;;8.02;5.10;;;;;;;16.07;30.32;93449.63;4913838;29;20074;-91
2022/03/03 00:07:16;;;;;;;10.57;5.65;;;;;;;16.08;30.27;93455.81;4911260;29;20039;-90
2022/03/03 00:09:42;;;;;;;9.55;5.28;;;;;;;16.07;30.16;93452.34;4915397;29;20368;-91
2022/03/03 00:12:08;;;;;;;10.90;6.38;;;;;;;16.09;30.39;93455.31;4910090;29;20040;-90
2022/03/03 00:14:33;;;;;;;7.30;5.43;;;;;;;16.07;30.25;93452.34;4918378;23;20070;-90
2022/03/03 00:16:58;;;;;;;8.60;5.18;;;;;;;16.05;30.38;93451.34;4932360;29;20039;-91
2022/03/03 00:19:24;;;;;;;10.82;5.53;;;;;;;16.07;30.33;93446.91;4907618;29;20043;-90
2022/03/03 00:21:49;;;;;;;8.82;6.15;;;;;;;16.08;29.78;93436.72;4909097;29;20337;-90
2022/03/03 00:24:15;;;;;;;7.88;5.50;;;;;;;16.06;30.29;93436.47;4916610;29;20044;-91
2022/03/03 00:26:40;;;;;;;9.75;5.20;;;;;;;16.07;30.43;93440.69;4916443;29;20028;-90
2022/03/03 00:29:06;;;;;;;7.47;5.57;;;;;;;16.06;30.14;93431.78;4923587;23;20051;-91
2022/03/03 00:31:31;;;;;;;8.88;5.47;;;;;;;16.07;30.18;93436.00;4948197;29;20027;-90
2022/03/03 00:33:57;;;;;;;7.63;5.70;;;;;;;16.07;30.38;93437.97;4945640;29;20068;-90
2022/03/03 00:36:22;;;;;;;7.28;4.88;;;;;;;16.10;30.43;93435.00;4925226;28;20549;-93
2022/03/03 00:38:48;;;;;;;8.00;5.72;;;;;;;16.11;30.28;93444.66;4939044;23;20051;-91
2022/03/03 00:41:14;;;;;;;7.82;5.47;;;;;;;16.15;30.34;93447.16;4947224;28;20409;-91
2022/03/03 00:43:42;;;;;;;9.43;5.03;;;;;;;16.07;30.43;93444.16;4948762;28;20019;-91
2022/03/03 00:46:07;;;;;;;8.07;5.22;;;;;;;16.07;30.53;93437.97;4927779;28;20038;-91
2022/03/03 00:48:33;;;;;;;10.07;5.63;;;;;;;16.11;30.54;93439.22;4947422;28;20042;-91
2022/03/03 00:51:00;;;;;;;6.88;4.55;;;;;;;16.10;30.51;93443.19;4947666;28;20493;-90
2022/03/03 00:53:34;;;;;;;9.43;5.43;;;;;;;16.11;30.49;93439.22;4930359;28;20043;-90
2022/03/03 00:56:00;;;;;;;8.95;5.00;;;;;;;16.07;30.31;93441.44;4945976;28;20045;-90
2022/03/03 00:58:25;;;;;;;8.07;5.45;;;;;;;16.12;30.26;93442.69;4943851;28;20031;-92
2022/03/03 01:00:50;;;;;;;6.13;5.03;;;;;;;16.13;30.19;93432.53;4932427;28;20047;-91
2022/03/03 01:03:16;;;;;;;7.65;5.25;;;;;;;16.07;30.37;93424.34;4944248;28;20039;-90
2022/03/03 01:05:41;;;;;;;7.45;4.38;;;;;;;16.06;30.46;93420.13;4950147;28;20053;-91
2022/03/03 01:08:10;;;;;;;10.60;6.10;;;;;;;16.10;30.09;93412.44;4945150;28;20043;-90
2022/03/03 01:10:38;;;;;;;8.18;5.40;;;;;;;16.07;30.36;93413.44;4947518;28;20047;-90
2022/03/03 01:13:04;;;;;;;6.78;5.03;;;;;;;16.06;30.58;93409.97;4934822;28;20082;-90
2022/03/03 01:15:30;;;;;;;8.57;5.28;;;;;;;16.06;30.28;93417.41;4951444;28;20055;-90
2022/03/03 01:17:55;;;;;;;11.70;5.53;;;;;;;16.10;30.07;93421.38;4952664;28;20029;-92
2022/03/03 01:20:21;;;;;;;9.68;5.50;;;;;;;16.10;30.64;93420.63;4934965;28;20047;-91
2022/03/03 01:22:46;;;;;;;7.30;4.88;;;;;;;16.08;30.27;93415.66;4949514;28;20469;-90
2022/03/03 01:25:12;;;;;;;9.23;4.60;;;;;;;16.08;30.53;93417.66;4950890;28;20043;-90
2022/03/03 01:27:38;;;;;;;7.93;5.35;;;;;;;16.07;30.47;93408.72;4934294;28;20046;-91
2022/03/03 01:30:04;;;;;;;6.75;4.93;;;;;;;16.06;30.66;93404.50;4964281;28;20042;-90
2022/03/03 01:32:30;;;;;;;8.95;5.10;;;;;;;16.09;30.49;93408.97;4933921;28;20035;-91
2022/03/03 01:34:55;;;;;;;7.55;5.07;;;;;;;16.03;30.31;93396.56;4949072;28;20110;-90
2022/03/03 01:37:21;;;;;;;8.65;5.28;;;;;;;16.04;30.68;93403.50;4935386;28;20038;-89
2022/03/03 01:39:46;;;;;;;9.38;4.80;;;;;;;16.03;30.67;93393.84;4953323;28;20043;-90
2022/03/03 01:42:13;;;;;;;8.45;4.95;;;;;;;16.10;30.69;93396.09;4931949;28;20468;-93
2022/03/03 01:44:42;;;;;;;6.25;4.75;;;;;;;16.09;30.59;93394.59;4940030;28;20061;-92
2022/03/03 01:47:21;;;;;;;9.82;5.07;;;;;;;16.12;30.68;93393.59;4934114;28;20444;-89
2022/03/03 01:49:48;;;;;;;7.25;4.78;;;;;;;16.10;30.18;93402.28;4937661;28;20066;-91
2022/03/03 01:52:13;;;;;;;5.60;4.57;;;;;;;16.08;30.41;93398.56;4950501;28;20038;-90
2022/03/03 01:54:38;;;;;;;5.88;4.45;;;;;;;16.04;30.47;93400.78;4949217;28;20034;-91
2022/03/03 01:57:05;;;;;;;6.43;4.63;;;;;;;16.06;30.28;93395.59;4925143;29;20043;-90
2022/03/03 01:59:32;;;;;;;8.30;5.20;;;;;;;16.06;30.33;93401.03;4929923;29;20039;-90
2022/03/03 02:01:57;;;;;;;7.75;5.05;;;;;;;16.08;30.42;93396.56;4930399;29;20058;-90
2022/03/03 02:04:23;;;;;;;5.85;4.65;;;;;;;16.12;30.62;93396.34;4912900;29;20481;-90
2022/03/03 02:06:49;;;;;;;6.07;4.63;;;;;;;16.03;30.67;93386.41;4933012;29;20032;-90
2022/03/03 02:09:15;;;;;;;6.32;4.68;;;;;;;16.06;30.45;93390.88;4948833;29;20023;-91
2022/03/03 02:11:40;;;;;;;6.32;5.22;;;;;;;16.07;30.30;93391.63;4930180;29;20039;-90
2022/03/03 02:14:06;;;;;;;7.45;4.65;;;;;;;16.07;30.62;93386.91;4914192;29;20028;-90
2022/03/03 02:16:31;;;;;;;7.97;4.70;;;;;;;16.06;30.41;93390.13;4931427;29;20020;-90
2022/03/03 02:18:57;;;;;;;10.48;5.47;;;;;;;16.10;30.72;93385.19;4915692;29;20054;-92
2022/03/03 02:21:22;;;;;;;7.25;4.80;;;;;;;16.03;30.83;93383.69;4915072;29;20046;-91
2022/03/03 02:23:48;;;;;;;6.35;4.75;;;;;;;16.01;30.74;93378.00;4914228;29;20054;-90
2022/03/03 02:26:19;;;;;;;6.88;4.43;;;;;;;16.05;30.91;93377.72;4896474;29;20053;-91
2022/03/03 02:28:49;;;;;;;6.63;5.03;;;;;;;16.00;30.66;93373.03;4959207;23;20420;-91
2022/03/03 02:31:14;;;;;;;7.40;4.88;;;;;;;16.06;30.46;93369.06;4947674;28;20035;-90
2022/03/03 02:33:39;;;;;;;7.57;4.75;;;;;;;16.05;30.67;93364.09;4934185;28;20022;-91
2022/03/03 02:36:16;;;;;;;7.13;4.82;;;;;;;16.02;30.78;93362.38;4949648;28;20509;-90
2022/03/03 02:38:41;;;;;;;9.57;4.63;;;;;;;16.00;30.63;93360.16;4970161;28;20047;-90
2022/03/03 02:41:07;;;;;;;7.07;4.95;;;;;;;16.05;30.65;93362.13;4932745;28;20038;-90
2022/03/03 02:43:33;;;;;;;5.70;4.50;;;;;;;16.06;30.45;93355.44;4948924;28;20039;-90
2022/03/03 02:45:58;;;;;;;7.18;5.40;;;;;;;16.02;30.49;93348.75;4931525;28;20042;-91
2022/03/03 02:48:23;;;;;;;7.22;4.82;;;;;;;16.00;30.74;93340.31;4934619;28;20031;-92
2022/03/03 02:50:49;;;;;;;7.72;4.47;;;;;;;16.04;30.60;93352.44;4936786;28;20039;-90
2022/03/03 02:53:14;;;;;;;6.35;4.88;;;;;;;16.00;30.90;93353.97;4953969;28;20022;-90
2022/03/03 02:55:40;;;;;;;6.30;4.38;;;;;;;16.01;30.62;93339.09;4940346;28;20057;-90
2022/03/03 02:58:05;;;;;;;7.70;4.72;;;;;;;16.03;30.52;93337.31;4957063;28;20035;-90
2022/03/03 03:00:35;;;;;;;6.22;4.40;;;;;;;16.07;30.67;93337.09;4952525;28;20034;-89
2022/03/03 03:03:01;;;;;;;7.80;5.03;;;;;;;16.05;30.72;93339.56;4974956;23;20058;-90
2022/03/03 03:05:26;;;;;;;8.30;5.28;;;;;;;15.99;30.83;93334.13;4930156;29;20019;-91
2022/03/03 03:07:51;;;;;;;6.88;4.55;;;;;;;15.99;30.68;93328.69;4915472;29;20043;-90
2022/03/03 03:10:17;;;;;;;7.38;4.28;;;;;;;16.03;30.68;93328.41;4912252;29;20027;-90
2022/03/03 03:12:42;;;;;;;6.82;4.75;;;;;;;15.98;30.71;93329.91;4914046;29;20494;-90
2022/03/03 03:15:08;;;;;;;8.65;5.00;;;;;;;15.97;30.89;93327.69;4929351;29;20059;-91
2022/03/03 03:17:33;;;;;;;6.90;4.95;;;;;;;16.02;30.86;93326.94;4929131;29;20070;-93
2022/03/03 03:19:59;;;;;;;6.75;4.65;;;;;;;16.05;30.79;93325.94;4930591;23;20054;-90
2022/03/03 03:22:24;;;;;;;6.18;4.93;;;;;;;16.00;30.54;93313.06;4929944;29;20035;-91
2022/03/03 03:24:49;;;;;;;8.85;5.50;;;;;;;15.99;30.68;93317.78;4911056;29;20030;-90
2022/03/03 03:27:15;;;;;;;6.22;4.38;;;;;;;15.98;30.83;93321.75;4929924;29;20482;-91
2022/03/03 03:29:40;;;;;;;6.32;5.05;;;;;;;15.99;30.68;93325.94;4937887;23;20039;-90
2022/03/03 03:32:06;;;;;;;6.18;4.85;;;;;;;15.99;30.48;93325.94;4926332;28;20034;-93
2022/03/03 03:34:31;;;;;;;6.97;4.68;;;;;;;15.96;30.95;93323.47;4931963;28;20049;-90
2022/03/03 03:36:57;;;;;;;7.22;4.70;;;;;;;15.97;30.51;93324.97;4947830;28;20047;-91
2022/03/03 03:39:22;;;;;;;8.00;5.30;;;;;;;16.02;30.79;93316.03;4951973;28;20038;-90
2022/03/03 03:41:47;;;;;;;8.55;5.15;;;;;;;16.03;30.67;93322.94;4948388;28;20042;-91
2022/03/03 03:44:13;;;;;;;6.75;4.40;;;;;;;15.97;30.86;93312.06;4947632;28;20042;-91
2022/03/03 03:46:38;;;;;;;6.40;4.80;;;;;;;15.98;30.43;93313.56;4951378;28;20035;-90
2022/03/03 03:49:05;;;;;;;8.35;4.40;;;;;;;15.99;30.81;93309.59;4941854;23;20063;-90
2022/03/03 03:51:31;;;;;;;5.70;4.47;;;;;;;15.98;30.56;93296.47;4893253;29;20042;-91
2022/03/03 03:53:56;;;;;;;6.40;4.57;;;;;;;15.97;30.64;93308.59;4889753;29;20036;-90
2022/03/03 03:56:22;;;;;;;5.90;4.90;;;;;;;15.99;30.93;93300.66;4886404;29;20052;-90
2022/03/03 03:58:47;;;;;;;6.10;4.55;;;;;;;15.99;30.62;93295.22;4906575;29;20347;-90
2022/03/03 04:01:13;;;;;;;6.78;4.55;;;;;;;15.98;30.66;93310.09;4886064;29;20108;-91
2022/03/03 04:03:39;;;;;;;7.80;4.95;;;;;;;16.00;30.69;93311.09;4916997;29;20086;-91
2022/03/03 04:06:05;;;;;;;8.45;4.75;;;;;;;15.98;30.89;93297.19;4910982;29;20043;-90
2022/03/03 04:08:31;;;;;;;6.97;4.57;;;;;;;16.01;30.59;93309.84;4884775;23;20051;-90
2022/03/03 04:10:56;;;;;;;6.97;4.30;;;;;;;15.98;31.00;93308.09;4892089;29;20028;-90
2022/03/03 04:13:22;;;;;;;5.20;4.40;;;;;;;15.97;30.55;93308.59;4910025;23;20424;-91
2022/03/03 04:15:47;;;;;;;6.90;4.90;;;;;;;16.01;30.86;93304.38;4894272;29;20036;-90
2022/03/03 04:18:13;;;;;;;6.55;4.80;;;;;;;15.99;30.68;93300.66;4889275;29;20073;-90
2022/03/03 04:20:39;;;;;;;5.88;4.40;;;;;;;16.01;30.56;93304.38;4887473;29;20040;-90
2022/03/03 04:23:05;;;;;;;7.50;4.40;;;;;;;15.97;30.74;93297.69;4889517;29;20043;-95
2022/03/03 04:25:30;;;;;;;5.72;4.20;;;;;;;15.95;31.00;93297.44;4889219;29;20020;-90
2022/03/03 04:27:55;;;;;;;7.85;4.70;;;;;;;16.00;30.88;93293.97;4889010;29;20111;-92
2022/03/03 04:30:21;;;;;;;6.05;4.47;;;;;;;15.99;30.89;93301.41;4889819;29;20044;-90
2022/03/03 04:32:46;;;;;;;5.10;4.32;;;;;;;15.96;31.02;93296.22;4890658;29;20032;-94
2022/03/03 04:35:12;;;;;;;5.93;4.55;;;;;;;16.02;30.93;93291.50;4923170;29;20064;-90
2022/03/03 04:37:37;;;;;;;6.53;4.85;;;;;;;15.99;31.02;93276.88;4890273;29;20044;-90
2022/03/03 04:40:04;;;;;;;5.68;4.20;;;;;;;15.98;30.96;93269.94;4888419;29;20037;-90
2022/03/03 04:42:29;;;;;;;7.32;4.68;;;;;;;15.96;30.94;93280.59;4888267;29;20059;-90
2022/03/03 04:44:55;;;;;;;6.53;5.03;;;;;;;15.98;30.95;93269.94;4888234;29;20096;-90
2022/03/03 04:47:21;;;;;;;5.70;3.92;;;;;;;15.96;31.00;93274.41;4889600;29;20040;-90
2022/03/03 04:49:46;;;;;;;6.35;4.55;;;;;;;16.00;30.60;93274.91;4910160;29;20415;-91
2022/03/03 04:52:12;;;;;;;5.75;4.45;;;;;;;15.94;31.03;93272.16;4892256;29;20035;-92
2022/03/03 04:54:37;;;;;;;7.55;4.38;;;;;;;15.94;31.10;93274.16;4901134;29;20389;-93
2022/03/03 04:57:03;;;;;;;7.53;3.92;;;;;;;15.91;30.89;93270.44;4885818;29;20055;-91
2022/03/03 04:59:28;;;;;;;5.85;4.53;;;;;;;15.99;31.00;93268.69;4906800;29;20518;-92
2022/03/03 05:01:54;;;;;;;6.60;4.53;;;;;;;16.00;30.82;93264.00;4900462;29;20559;-91
2022/03/03 05:04:19;;;;;;;6.75;4.60;;;;;;;15.92;31.09;93258.28;4882739;29;20040;-93
2022/03/03 05:06:45;;;;;;;7.47;4.82;;;;;;;15.93;30.83;93248.88;4894741;29;20044;-91
2022/03/03 05:09:11;;;;;;;4.85;4.18;;;;;;;16.00;30.49;93258.53;4895622;29;20059;-90
2022/03/03 05:11:36;;;;;;;7.72;4.95;;;;;;;15.98;30.82;93255.56;4897757;29;20505;-91
2022/03/03 05:14:02;;;;;;;6.97;4.47;;;;;;;15.95;30.84;93259.28;4921218;29;20050;-93
2022/03/03 05:16:27;;;;;;;5.20;4.03;;;;;;;15.93;30.81;93251.59;4936878;29;20670;-92
2022/03/03 05:18:53;;;;;;;5.63;4.63;;;;;;;15.98;31.06;93248.13;4907975;29;20043;-93
2022/03/03 05:21:20;;;;;;;6.53;4.65;;;;;;;15.96;31.28;93250.59;4902393;28;20660;-92
2022/03/03 05:23:46;;;;;;;8.15;4.68;;;;;;;16.00;30.76;93248.38;4934009;29;20098;-93
2022/03/03 05:26:12;;;;;;;7.80;4.28;;;;;;;15.98;30.93;93248.13;4899020;23;20038;-92
2022/03/03 05:28:37;;;;;;;7.85;5.13;;;;;;;15.94;30.92;93244.16;4925918;29;20269;-90
2022/03/03 05:31:04;;;;;;;11.07;5.30;;;;;;;15.97;30.81;93251.34;4910096;29;20043;-93
2022/03/03 05:33:30;;;;;;;7.45;4.75;;;;;;;16.01;30.68;93246.38;4917974;23;20057;-89
2022/03/03 05:36:04;;;;;;;7.13;4.28;;;;;;;15.99;31.32;93241.44;4894656;29;20047;-92
2022/03/03 05:38:31;;;;;;;64.05;46.35;;;;;;;16.09;31.50;93236.44;4924306;29;20047;-91
2022/03/03 05:41:05;;;;;;;32.50;29.70;;;;;;;16.09;30.85;93233.72;4919338;29;20573;-93
2022/03/03 05:43:35;;;;;;;103.38;91.28;;;;;;;16.12;31.03;93232.72;4896843;29;20477;-88
2022/03/03 05:46:01;;;;;;;12.15;6.63;;;;;;;16.07;31.11;93236.94;4912732;29;20539;-89
2022/03/03 05:48:26;;;;;;;16.73;7.78;;;;;;;16.13;30.88;93228.75;4919308;29;20059;-91
2022/03/03 05:50:52;;;;;;;12.80;9.77;;;;;;;16.16;30.64;93227.75;4901115;29;20130;-89
2022/03/03 05:53:18;;;;;;;20.00;9.65;;;;;;;16.15;30.71;93223.53;4882325;29;20050;-88
2022/03/03 05:55:47;;;;;;;79.90;35.25;;;;;;;16.06;30.46;93223.81;4900944;29;20035;-89
2022/03/03 05:58:15;;;;;;;125.85;44.35;;;;;;;16.02;28.44;93232.22;4946924;29;20030;-85
2022/03/03 06:00:42;;;;;;;84.60;33.20;;;;;;;16.05;28.02;93222.31;4934793;23;20043;-91
2022/03/03 06:03:08;;;;;;;70.57;25.95;;;;;;;16.01;28.85;93233.50;4938922;29;20054;-92
2022/03/03 06:05:33;;;;;;;92.72;31.25;;;;;;;16.05;29.41;93219.59;4957019;29;20035;-89
2022/03/03 06:08:03;;;;;;;101.38;35.53;;;;;;;16.07;29.74;93215.13;4925951;29;20098;-89
2022/03/03 06:10:31;;;;;;;82.32;31.27;;;;;;;16.07;29.79;93220.56;4911707;29;20039;-90
2022/03/03 06:13:10;;;;;;;92.53;34.17;;;;;;;16.09;30.00;93217.34;4925032;29;20043;-91
2022/03/03 06:15:37;;;;;;;90.40;32.85;;;;;;;16.11;29.82;93212.88;4902940;29;20039;-91
2022/03/03 06:18:02;;;;;;;85.88;32.83;;;;;;;16.10;30.18;93216.13;4912160;29;20105;-91
2022/03/03 06:20:28;;;;;;;83.55;32.22;;;;;;;16.07;30.18;93212.41;4919257;29;20043;-90
2022/03/03 06:22:53;;;;;;;86.45;30.88;;;;;;;16.15;29.99;93214.63;4923150;28;20043;-86
2022/03/03 06:25:18;;;;;;;77.38;33.28;;;;;;;16.09;30.19;93217.34;4950595;28;20043;-87
2022/03/03 06:27:44;;;;;;;77.55;31.73;;;;;;;16.16;30.38;93216.84;4932186;29;20493;-90
2022/03/03 06:30:09;;;;;;;112.60;46.78;;;;;;;16.17;30.27;93214.84;4914602;29;20046;-90
2022/03/03 06:32:35;;;;;;;89.97;45.50;;;;;;;16.15;29.91;93200.97;4915383;29;20054;-85
2022/03/03 06:35:01;;;;;;;109.65;48.10;;;;;;;16.22;30.20;93200.47;4935318;28;20063;-89
2022/03/03 06:37:27;;;;;;;149.73;67.40;;;;;;;16.20;30.34;93219.31;4929919;29;20047;-90
2022/03/03 06:39:53;;;;;;;298.25;153.10;;;;;;;16.19;30.52;93212.38;4933282;29;20039;-87
2022/03/03 06:42:18;;;;;;;327.30;176.23;;;;;;;16.20;30.19;93216.59;4908667;29;20031;-90
2022/03/03 06:44:43;;;;;;;243.20;122.68;;;;;;;16.24;30.15;93212.34;4912429;28;20057;-88
2022/03/03 06:47:09;;;;;;;197.00;99.35;;;;;;;16.27;30.49;93221.50;4927475;29;20469;-90
2022/03/03 06:49:37;;;;;;;168.35;82.80;;;;;;;16.28;30.17;93226.47;4914709;29;20039;-90
2022/03/03 06:52:03;;;;;;;190.93;78.65;;;;;;;16.29;30.24;93225.22;4934134;29;20070;-91
2022/03/03 06:54:29;;;;;;;203.73;80.20;;;;;;;16.30;30.25;93231.41;4924497;29;20063;-88
2022/03/03 06:56:56;;;;;;;115.35;45.15;;;;;;;16.23;27.75;93242.88;4931826;29;20046;-89
2022/03/03 06:59:23;;;;;;;52.05;25.25;;;;;;;16.05;24.86;93244.13;4924908;29;20039;-90
2022/03/03 07:01:49;;;;;;;64.95;29.63;;;;;;;15.92;25.22;93239.22;4913564;29;20068;-87
2022/03/03 07:04:14;;;;;;;99.38;36.00;;;;;;;15.91;25.25;93240.44;4902290;29;20052;-87
2022/03/03 07:06:40;;;;;;;81.15;32.03;;;;;;;15.97;26.63;93240.44;4930882;29;20047;-88
2022/03/03 07:09:06;;;;;;;71.68;34.80;;;;;;;16.08;26.52;93237.69;4926151;23;20104;-86
2022/03/03 07:11:31;;;;;;;145.25;41.22;;;;;;;16.17;27.12;93229.25;4927468;28;20050;-90
2022/03/03 07:13:57;;;;;;;190.32;59.30;;;;;;;16.24;27.95;93220.53;4920619;28;20042;-89
2022/03/03 07:16:23;;;;;;;103.60;41.85;;;;;;;16.31;28.08;93216.53;4919108;28;20533;-91
2022/03/03 07:18:58;;;;;;;105.75;44.65;;;;;;;16.35;28.65;93220.50;4947500;28;20098;-90
2022/03/03 07:21:51;;;;;;;88.53;39.47;;;;;;;16.35;29.24;93227.94;4916083;28;20061;-91
2022/03/03 07:24:33;;;;;;;95.78;39.03;;;;;;;16.39;28.62;93225.69;4931272;28;20095;-93
2022/03/03 07:27:04;;;;;;;92.10;37.17;;;;;;;16.39;29.23;93236.59;4890122;29;20036;-91
2022/03/03 07:29:31;;;;;;;94.75;39.33;;;;;;;16.42;28.71;93236.34;4878535;29;20119;-92
2022/03/03 07:31:59;;;;;;;80.47;35.38;;;;;;;16.41;28.53;93234.88;4879951;29;20086;-93
2022/03/03 07:34:36;;;;;;;70.75;35.05;;;;;;;16.39;28.76;93233.88;4897985;29;20044;-90
2022/03/03 07:37:11;;;;;;;76.82;34.58;;;;;;;16.40;28.36;93238.09;4895482;29;20051;-90
2022/03/03 07:39:41;;;;;;;70.63;30.75;;;;;;;16.30;28.21;93239.59;4872477;29;20051;-88
2022/03/03 07:42:10;;;;;;;69.63;32.75;;;;;;;16.27;27.81;93230.44;4894146;29;20112;-89
2022/03/03 07:44:35;;;;;;;69.72;30.95;;;;;;;16.31;27.35;93235.63;4894896;29;20505;-93
2022/03/03 07:47:01;;;;;;;63.05;30.20;;;;;;;16.32;27.67;93221.50;4883975;29;20128;-92
2022/03/03 07:49:27;;;;;;;90.93;33.20;;;;;;;16.34;27.80;93221.75;4861876;29;20036;-89
2022/03/03 07:51:52;;;;;;;109.93;37.45;;;;;;;16.35;28.45;93220.50;4893967;29;20048;-90
2022/03/03 07:54:18;;;;;;;82.32;34.55;;;;;;;16.37;28.31;93223.47;4880629;29;20039;-87
2022/03/03 07:56:45;;;;;;;78.13;32.58;;;;;;;16.38;28.76;93219.50;4862077;29;20428;-90
2022/03/03 07:59:11;;;;;;;90.78;38.38;;;;;;;16.36;28.83;93221.25;4933993;28;20046;-88
2022/03/03 08:01:37;;;;;;;136.43;59.65;;;;;;;16.38;28.77;93219.50;4938696;28;20440;-88
2022/03/03 08:04:03;;;;;;;94.13;39.45;;;;;;;16.37;28.63;93222.72;4902772;29;20056;-92
2022/03/03 08:06:29;;;;;;;90.70;31.42;;;;;;;16.29;28.45;93227.94;4910579;29;20091;-88
2022/03/03 08:08:54;;;;;;;103.00;38.28;;;;;;;16.33;28.40;93233.16;4900480;29;20576;-86
2022/03/03 08:11:20;;;;;;;113.65;38.90;;;;;;;16.33;27.96;93219.50;4901773;29;20052;-86
2022/03/03 08:13:46;;;;;;;114.35;38.75;;;;;;;16.35;27.72;93217.03;4898141;29;20067;-87
2022/03/03 08:16:13;;;;;;;111.93;39.42;;;;;;;16.36;28.24;93227.44;4898185;29;20522;-88
2022/03/03 08:18:38;;;;;;;125.95;38.60;;;;;;;16.37;28.82;93222.72;4914494;29;20040;-87
2022/03/03 08:21:06;;;;;;;129.55;41.80;;;;;;;16.39;28.26;93212.78;4898019;29;20518;-89
2022/03/03 08:23:32;;;;;;;122.47;44.05;;;;;;;16.38;28.66;93214.03;4889677;28;20494;-88
2022/03/03 08:26:00;;;;;;;126.40;49.10;;;;;;;16.41;28.67;93215.03;4922002;29;20380;-85
2022/03/03 08:28:25;;;;;;;149.55;68.82;;;;;;;16.34;29.35;93213.56;4917052;29;20088;-86
2022/03/03 08:31:01;;;;;;;165.00;68.47;;;;;;;16.41;28.94;93210.31;4899953;29;20047;-87
2022/03/03 08:33:29;;;;;;;173.80;73.15;;;;;;;16.42;28.89;93213.78;4909066;29;20043;-90
2022/03/03 08:35:56;;;;;;;122.90;48.85;;;;;;;16.38;27.35;93208.59;4945676;28;20042;-88
2022/03/03 08:38:39;;;;;;;162.27;63.33;;;;;;;16.39;27.90;93214.78;4911008;29;20051;-93
2022/03/03 08:41:05;;;;;;;137.23;56.30;;;;;;;16.35;27.08;93209.59;4947329;29;20063;-89
2022/03/03 08:43:31;;;;;;;111.78;49.05;;;;;;;16.36;27.38;93200.16;4924291;29;20046;-92
2022/03/03 08:46:02;;;;;;;143.38;64.32;;;;;;;16.39;27.93;93204.63;4932000;29;20076;-89
2022/03/03 08:48:30;;;;;;;130.18;57.67;;;;;;;16.40;27.57;93203.38;4940441;29;20039;-89
2022/03/03 08:50:56;;;;;;;134.00;54.38;;;;;;;16.41;27.67;93193.94;4936921;29;20109;-89
2022/03/03 08:53:21;;;;;;;118.88;53.70;;;;;;;16.41;27.64;93195.94;4945440;28;20097;-90
2022/03/03 08:55:46;;;;;;;121.15;56.85;;;;;;;16.43;27.85;93204.34;4913604;29;20068;-90
2022/03/03 08:58:14;;;;;;;118.88;54.58;;;;;;;16.44;28.43;93194.94;4932812;29;20414;-89
2022/03/03 09:00:39;;;;;;;136.55;52.60;;;;;;;16.41;28.83;93193.94;4905255;29;20812;-87
2022/03/03 09:03:05;;;;;;;114.63;51.20;;;;;;;16.44;28.31;93189.47;4906011;29;20047;-90
2022/03/03 09:05:30;;;;;;;111.53;51.80;;;;;;;16.48;28.84;93187.19;4918374;29;20051;-89
2022/03/03 09:07:56;;;;;;;118.50;49.47;;;;;;;16.51;28.68;93185.44;4922423;29;20454;-90
2022/03/03 09:10:22;;;;;;;126.78;63.20;;;;;;;16.50;29.23;93181.25;4922976;28;20047;-89
2022/03/03 09:12:47;;;;;;;104.05;37.05;;;;;;;16.44;25.35;93179.28;4935961;28;20058;-87
2022/03/03 09:15:13;;;;;;;133.98;44.97;;;;;;;16.37;26.09;93182.53;4929718;28;20754;-87
2022/03/03 09:17:38;;;;;;;129.38;46.35;;;;;;;16.41;25.76;93177.56;4934783;28;20182;-87
2022/03/03 09:20:07;;;;;;;106.47;45.55;;;;;;;16.42;25.83;93172.84;4943640;28;20413;-87
2022/03/03 09:22:33;;;;;;;137.88;51.03;;;;;;;16.46;26.02;93174.06;4931890;28;20061;-88
2022/03/03 09:24:59;;;;;;;129.43;54.60;;;;;;;16.48;26.57;93161.91;4952858;28;20043;-85
2022/03/03 09:27:24;;;;;;;128.02;63.40;;;;;;;16.48;27.60;93164.63;4944612;28;20050;-91
2022/03/03 09:29:50;;;;;;;123.30;60.05;;;;;;;16.49;27.80;93166.09;4935874;28;20066;-88
2022/03/03 09:32:16;;;;;;;130.15;68.55;;;;;;;16.51;27.67;93161.63;4954927;28;20038;-91
2022/03/03 09:34:43;;;;;;;133.93;70.03;;;;;;;16.51;27.74;93160.91;4945048;28;20049;-88
2022/03/03 09:37:09;;;;;;;127.35;68.13;;;;;;;16.55;28.21;93166.84;4927080;28;20043;-87
2022/03/03 09:39:35;;;;;;;158.20;73.78;;;;;;;16.53;28.10;93167.34;4935991;29;20410;-85
2022/03/03 09:42:01;;;;;;;145.80;70.63;;;;;;;16.54;28.37;93152.44;4932567;28;20050;-86
2022/03/03 09:44:26;;;;;;;139.95;71.18;;;;;;;16.54;28.10;93149.72;4926357;28;20078;-85
2022/03/03 09:46:52;;;;;;;148.93;78.88;;;;;;;16.56;28.13;93152.69;4946204;28;20038;-85
2022/03/03 09:49:18;;;;;;;168.95;83.18;;;;;;;16.54;28.34;93140.78;4964909;28;20105;-88
2022/03/03 09:51:44;;;;;;;206.30;107.68;;;;;;;16.60;28.57;93141.50;4941174;29;20491;-88
2022/03/03 09:54:09;;;;;;;219.00;115.38;;;;;;;16.60;28.75;93144.22;4935629;28;20528;-92
2022/03/03 09:56:36;;;;;;;257.92;130.82;;;;;;;16.60;28.41;93139.53;4937700;28;20295;-87
2022/03/03 09:59:02;;;;;;;253.15;137.73;;;;;;;16.63;28.66;93137.78;4952159;28;20108;-88
2022/03/03 10:01:28;;;;;;;290.30;157.38;;;;;;;16.63;28.85;93135.03;4918393;29;20039;-88
2022/03/03 10:03:54;;;;;;;312.10;172.43;;;;;;;16.64;28.49;93131.84;4913049;28;20126;-90
2022/03/03 10:06:23;;;;;;;295.17;169.50;;;;;;;16.63;28.46;93129.59;4916804;28;20673;-87
2022/03/03 10:08:49;;;;;;;340.88;187.95;;;;;;;16.62;28.63;93137.03;4921357;28;20186;-87
2022/03/03 10:11:15;;;;;;;323.20;186.70;;;;;;;16.63;28.82;93127.63;4939784;28;20103;-87
2022/03/03 10:13:49;;;;;;;319.10;189.32;;;;;;;16.64;28.95;93123.66;4948033;28;20043;-87
2022/03/03 10:16:20;;;;;;;317.25;183.18;;;;;;;16.65;28.85;93116.19;4951561;28;20039;-85
2022/03/03 10:19:03;;;;;;;333.25;191.63;;;;;;;16.65;28.85;93116.19;4942013;28;20071;-87
2022/03/03 10:21:29;;;;;;;339.15;200.73;;;;;;;16.69;29.06;93122.09;4935237;28;20502;-85
2022/03/03 10:23:56;;;;;;;330.67;196.50;;;;;;;16.66;28.99;93121.16;4925157;28;20045;-89
2022/03/03 10:26:34;;;;;;;354.63;219.18;;;;;;;16.68;28.83;93117.91;4957938;28;20039;-90
2022/03/03 10:29:00;;;;;;;363.98;216.60;;;;;;;16.70;28.95;93118.88;4912450;28;20043;-88
2022/03/03 10:31:27;;;;;;;333.65;200.88;;;;;;;16.70;29.36;93118.88;4922525;28;20043;-90
2022/03/03 10:33:53;;;;;;;354.23;209.60;;;;;;;16.71;29.47;93123.09;4932767;28;20061;-90
2022/03/03 10:36:23;;;;;;;341.23;209.68;;;;;;;16.68;28.97;93121.38;4952341;28;20042;-87
2022/03/03 10:38:50;;;;;;;328.80;208.75;;;;;;;16.70;29.11;93118.13;4938390;28;20097;-87
2022/03/03 10:41:37;;;;;;;338.75;213.48;;;;;;;16.69;29.67;93122.09;4937698;28;20105;-94
2022/03/03 10:44:10;;;;;;;356.17;224.30;;;;;;;16.70;29.45;93112.69;4955808;28;20090;-88
2022/03/03 10:46:38;;;;;;;349.60;217.32;;;;;;;16.67;29.08;93108.25;4955296;28;20504;-86
2022/03/03 10:49:18;;;;;;;345.70;194.55;;;;;;;16.65;28.60;93102.56;4957392;28;20050;-87
2022/03/03 10:51:43;;;;;;;348.95;192.35;;;;;;;16.68;29.05;93105.00;4970006;28;20042;-87
2022/03/03 10:54:09;;;;;;;268.17;117.45;;;;;;;16.68;29.85;93098.78;4953500;28;20576;-86
2022/03/03 10:56:42;;;;;;;304.70;154.32;;;;;;;16.66;29.44;93101.31;4939229;28;20460;-86
2022/03/03 10:59:08;;;;;;;312.08;160.40;;;;;;;16.67;29.45;93100.78;4922372;28;20078;-89
2022/03/03 11:01:34;;;;;;;325.25;177.95;;;;;;;16.65;29.47;93099.81;4921154;28;20039;-86
2022/03/03 11:04:00;;;;;;;350.92;182.90;;;;;;;16.69;29.41;93105.72;4936769;28;20414;-86
2022/03/03 11:06:28;;;;;;;331.60;181.43;;;;;;;16.77;32.75;93090.31;4897581;29;20044;-87
2022/03/03 11:08:54;;;;;;;310.60;163.57;;;;;;;16.79;30.44;93088.56;4882126;29;20410;-87
2022/03/03 11:11:20;;;;;;;280.38;164.13;;;;;;;16.89;30.17;93077.31;4897455;29;20627;-89
2022/03/03 11:13:47;;;;;;;267.38;153.45;;;;;;;16.92;29.95;93079.00;4882051;29;20048;-89
2022/03/03 11:16:15;;;;;;;267.77;158.43;;;;;;;16.93;30.62;93086.69;4882219;29;20063;-90
2022/03/03 11:18:40;;;;;;;256.98;146.60;;;;;;;16.94;30.34;93080.00;4878933;29;20068;-92
2022/03/03 11:21:07;;;;;;;225.85;133.70;;;;;;;16.94;30.78;93071.78;4862890;29;20072;-86